Time;durP1;ratioP1;P1;durP2;ratioP2;P2;SDS_P1;SDS_P2;PMS_P1;PMS_P2;Temp;Humidity;BMP_temperature;BMP_pressure;BME280_temperature;BME280_humidity;BME280_pressure;Samples;Min_cycle;Max_cycle;Signal;HPM_P1;HPM_P2
2023/05/13 00:09:49;;;;;;;0.45;0.20;;;;;;;;;;20911169;28;20044;-67
2023/05/13 00:19:50;;;;;;;3.42;0.40;;;;;;;;;;20927025;28;20123;-66
2023/05/13 00:29:51;;;;;;;0.43;0.10;;;;;;;;;;20925601;28;20065;-67
2023/05/13 00:39:52;;;;;;;2.05;0.40;;;;;;;;;;20925877;28;20145;-67
2023/05/13 00:49:54;;;;;;;0.52;0.10;;;;;;;;;;20925475;28;20091;-67
2023/05/13 00:59:55;;;;;;;0.80;0.22;;;;;;;;;;20924657;28;20469;-67
2023/05/13 01:10:08;;;;;;;0.35;0.15;;;;;;;;;;20923744;28;20549;-66
2023/05/13 01:20:10;;;;;;;2.35;0.25;;;;;;;;;;20922879;28;20128;-66
2023/05/13 01:30:12;;;;;;;1.15;0.35;;;;;;;;;;20920730;28;20073;-67
2023/05/13 01:40:13;;;;;;;2.28;0.30;;;;;;;;;;20921537;28;20045;-66
2023/05/13 01:50:14;;;;;;;0.65;0.10;;;;;;;;;;20919389;28;20132;-66
2023/05/13 02:00:16;;;;;;;1.13;0.22;;;;;;;;;;20920067;28;20141;-67
2023/05/13 02:10:17;;;;;;;0.35;0.28;;;;;;;;;;20918998;28;20094;-66
2023/05/13 02:20:18;;;;;;;2.67;0.25;;;;;;;;;;20916717;28;20088;-66
2023/05/13 02:30:20;;;;;;;0.30;0.20;;;;;;;;;;20915968;28;20498;-66
2023/05/13 02:40:21;;;;;;;1.10;0.30;;;;;;;;;;20914545;28;20041;-67
2023/05/13 02:50:22;;;;;;;0.82;0.10;;;;;;;;;;20915504;28;20084;-67
2023/05/13 03:00:23;;;;;;;0.85;0.30;;;;;;;;;;20915213;28;20502;-66
2023/05/13 03:10:25;;;;;;;0.35;0.20;;;;;;;;;;20913582;28;20049;-66
2023/05/13 03:20:26;;;;;;;1.05;0.17;;;;;;;;;;20913881;28;20539;-67
2023/05/13 03:30:27;;;;;;;0.40;0.13;;;;;;;;;;20914125;28;20041;-67
2023/05/13 03:40:28;;;;;;;0.63;0.28;;;;;;;;;;20913530;28;20542;-66
2023/05/13 03:50:29;;;;;;;1.85;0.20;;;;;;;;;;20920775;28;20059;-67
2023/05/13 04:00:30;;;;;;;1.25;0.47;;;;;;;;;;20929110;28;20434;-67
2023/05/13 04:10:32;;;;;;;1.38;0.43;;;;;;;;;;20928257;28;20041;-67
2023/05/13 04:20:33;;;;;;;1.27;0.22;;;;;;;;;;20927333;28;20525;-68
2023/05/13 04:30:35;;;;;;;1.73;0.20;;;;;;;;;;20927149;28;20526;-66
2023/05/13 04:40:36;;;;;;;0.45;0.20;;;;;;;;;;20925402;28;20124;-66
2023/05/13 04:50:37;;;;;;;0.77;0.40;;;;;;;;;;20925437;28;20482;-67
2023/05/13 05:00:38;;;;;;;0.88;0.22;;;;;;;;;;20924048;28;20049;-66
2023/05/13 05:10:39;;;;;;;1.75;0.40;;;;;;;;;;20924019;28;20135;-66
2023/05/13 05:20:40;;;;;;;1.85;0.40;;;;;;;;;;20921511;28;20146;-66
2023/05/13 05:30:42;;;;;;;0.80;0.20;;;;;;;;;;20922286;28;20080;-66
2023/05/13 05:40:43;;;;;;;2.08;0.20;;;;;;;;;;20921318;28;20045;-66
2023/05/13 05:50:44;;;;;;;3.30;0.30;;;;;;;;;;20920359;28;20045;-67
2023/05/13 06:00:45;;;;;;;1.48;0.20;;;;;;;;;;20917891;28;20120;-66
2023/05/13 06:10:47;;;;;;;3.75;0.30;;;;;;;;;;20918207;28;20087;-67
2023/05/13 06:20:48;;;;;;;1.85;0.40;;;;;;;;;;20917809;28;20225;-66
2023/05/13 06:30:49;;;;;;;4.32;0.75;;;;;;;;;;20917423;28;20056;-68
2023/05/13 06:40:50;;;;;;;1.02;0.30;;;;;;;;;;20916199;28;20037;-65
2023/05/13 06:50:51;;;;;;;1.30;0.40;;;;;;;;;;20915902;28;20047;-67
2023/05/13 07:00:53;;;;;;;1.98;0.20;;;;;;;;;;20914059;28;20116;-66
2023/05/13 07:10:54;;;;;;;1.00;0.40;;;;;;;;;;20914113;28;20481;-67
2023/05/13 07:20:55;;;;;;;0.45;0.15;;;;;;;;;;20913652;28;20048;-67
2023/05/13 07:30:56;;;;;;;0.85;0.30;;;;;;;;;;20913956;28;20049;-66
2023/05/13 07:40:57;;;;;;;2.65;0.70;;;;;;;;;;20912982;28;20095;-67
2023/05/13 07:50:59;;;;;;;0.95;0.30;;;;;;;;;;20911806;28;20125;-66
2023/05/13 08:01:00;;;;;;;1.50;0.20;;;;;;;;;;20910293;28;20136;-68
2023/05/13 08:11:01;;;;;;;1.08;0.35;;;;;;;;;;20911326;28;20044;-66
2023/05/13 08:21:02;;;;;;;0.80;0.30;;;;;;;;;;20909871;28;20066;-68
2023/05/13 08:31:03;;;;;;;1.17;0.20;;;;;;;;;;20910467;28;20076;-66
2023/05/13 08:41:05;;;;;;;1.20;0.20;;;;;;;;;;20922797;28;20087;-67
2023/05/13 08:51:06;;;;;;;0.63;0.20;;;;;;;;;;20923730;28;20123;-66
2023/05/13 09:01:07;;;;;;;0.32;0.20;;;;;;;;;;20923567;28;20083;-67
2023/05/13 09:11:09;;;;;;;2.13;0.35;;;;;;;;;;20922404;28;20107;-66
2023/05/13 09:21:23;;;;;;;1.92;0.30;;;;;;;;;;20921571;28;20045;-67
2023/05/13 09:31:32;;;;;;;1.75;0.25;;;;;;;;;;20920464;28;20053;-65
2023/05/13 09:41:33;;;;;;;1.58;0.45;;;;;;;;;;20919250;28;20060;-68
2023/05/13 09:51:35;;;;;;;1.67;0.28;;;;;;;;;;20918089;28;20049;-63
2023/05/13 10:01:36;;;;;;;1.58;0.40;;;;;;;;;;20917707;28;20052;-61
2023/05/13 10:11:37;;;;;;;1.55;0.30;;;;;;;;;;20917078;28;20425;-62
2023/05/13 10:21:38;;;;;;;0.90;0.30;;;;;;;;;;20914624;28;20057;-61
2023/05/13 10:31:40;;;;;;;2.40;0.63;;;;;;;;;;20915325;28;20444;-64
2023/05/13 10:41:53;;;;;;;0.85;0.20;;;;;;;;;;20914702;28;20045;-67
2023/05/13 10:52:03;;;;;;;0.77;0.30;;;;;;;;;;20912968;28;20037;-58
2023/05/13 11:02:23;;;;;;;2.70;0.30;;;;;;;;;;20912865;28;20397;-61
2023/05/13 11:12:24;;;;;;;0.22;0.10;;;;;;;;;;20913075;28;20049;-67
2023/05/13 11:22:26;;;;;;;0.77;0.17;;;;;;;;;;20911402;28;20057;-62
2023/05/13 11:32:54;;;;;;;1.73;0.30;;;;;;;;;;20911918;28;20041;-64
2023/05/13 11:42:56;;;;;;;1.60;0.20;;;;;;;;;;20911281;28;20064;-65
2023/05/13 11:52:58;;;;;;;1.65;0.30;;;;;;;;;;20910073;28;20040;-61
2023/05/13 12:03:00;;;;;;;0.45;0.20;;;;;;;;;;20910120;28;20045;-63
2023/05/13 12:13:01;;;;;;;0.80;0.43;;;;;;;;;;20920014;28;20150;-61
2023/05/13 12:23:03;;;;;;;0.75;0.20;;;;;;;;;;20925470;28;20482;-63
2023/05/13 12:33:04;;;;;;;11.65;0.85;;;;;;;;;;20925140;28;20120;-65
2023/05/13 12:43:05;;;;;;;0.80;0.20;;;;;;;;;;20924686;28;20049;-66
2023/05/13 12:53:06;;;;;;;0.50;0.30;;;;;;;;;;20923919;28;20037;-66
2023/05/13 13:03:08;;;;;;;1.00;0.30;;;;;;;;;;20923271;28;20052;-66
2023/05/13 13:13:09;;;;;;;0.98;0.30;;;;;;;;;;20920784;28;20110;-66
2023/05/13 13:23:10;;;;;;;1.20;0.40;;;;;;;;;;20920461;28;20057;-66
2023/05/13 13:33:14;;;;;;;0.55;0.20;;;;;;;;;;20920582;28;20037;-66
2023/05/13 13:43:16;;;;;;;0.57;0.20;;;;;;;;;;20918175;28;20123;-66
2023/05/13 13:53:17;;;;;;;0.25;0.20;;;;;;;;;;20918256;28;20041;-66
2023/05/13 14:03:18;;;;;;;0.45;0.20;;;;;;;;;;20916640;28;20101;-67
2023/05/13 14:13:19;;;;;;;1.67;0.30;;;;;;;;;;20916170;28;20100;-66
2023/05/13 14:23:20;;;;;;;0.70;0.30;;;;;;;;;;20916021;28;20064;-65
2023/05/13 14:33:21;;;;;;;0.95;0.30;;;;;;;;;;20915494;28;20048;-66
2023/05/13 14:43:23;;;;;;;0.50;0.13;;;;;;;;;;20913359;28;20083;-66
2023/05/13 14:53:24;;;;;;;0.80;0.40;;;;;;;;;;20914223;28;20049;-65
2023/05/13 15:03:25;;;;;;;1.65;0.30;;;;;;;;;;20914319;28;20033;-66
2023/05/13 15:13:27;;;;;;;1.50;0.63;;;;;;;;;;20912359;28;20041;-66
2023/05/13 15:23:28;;;;;;;0.52;0.20;;;;;;;;;;20912970;28;20091;-65
2023/05/13 15:33:31;;;;;;;0.30;0.10;;;;;;;;;;20913373;28;20083;-65
2023/05/13 15:43:33;;;;;;;0.32;0.20;;;;;;;;;;20919276;28;20151;-65
2023/05/13 15:53:34;;;;;;;1.10;0.40;;;;;;;;;;20928485;28;20119;-66
2023/05/13 16:03:35;;;;;;;0.10;0.10;;;;;;;;;;20928775;28;20094;-65
2023/05/13 16:13:36;;;;;;;0.40;0.17;;;;;;;;;;20927101;28;20077;-66
2023/05/13 16:23:37;;;;;;;0.40;0.20;;;;;;;;;;20927202;28;20061;-67
2023/05/13 16:33:38;;;;;;;0.77;0.35;;;;;;;;;;20926848;28;20049;-65
2023/05/13 16:43:39;;;;;;;0.32;0.10;;;;;;;;;;20926295;28;20084;-67
2023/05/13 16:53:41;;;;;;;2.15;0.35;;;;;;;;;;20924468;28;20067;-66
2023/05/13 17:03:42;;;;;;;0.43;0.20;;;;;;;;;;20924534;28;20119;-65
2023/05/13 17:13:43;;;;;;;0.98;0.25;;;;;;;;;;20923417;28;20490;-65
2023/05/13 17:23:45;;;;;;;0.52;0.20;;;;;;;;;;20922218;28;20056;-65
2023/05/13 17:33:46;;;;;;;0.90;0.13;;;;;;;;;;20921031;28;20041;-66
2023/05/13 17:43:47;;;;;;;2.47;0.28;;;;;;;;;;20921266;28;20052;-66
2023/05/13 17:53:49;;;;;;;0.82;0.30;;;;;;;;;;20918997;28;20045;-66
2023/05/13 18:03:50;;;;;;;0.63;0.20;;;;;;;;;;20918693;28;20053;-66
2023/05/13 18:13:51;;;;;;;0.95;0.32;;;;;;;;;;20918720;28;20363;-66
2023/05/13 18:23:52;;;;;;;3.20;1.58;;;;;;;;;;20917620;28;20121;-65
2023/05/13 18:33:53;;;;;;;6.50;3.70;;;;;;;;;;20917164;28;20044;-66
2023/05/13 18:43:54;;;;;;;3.38;0.73;;;;;;;;;;20916842;28;20064;-65
2023/05/13 18:53:55;;;;;;;0.55;0.30;;;;;;;;;;20915542;28;20466;-65
2023/05/13 19:03:57;;;;;;;3.15;0.70;;;;;;;;;;20914172;28;20041;-66
2023/05/13 19:13:58;;;;;;;1.25;0.40;;;;;;;;;;20914510;28;20493;-66
2023/05/13 19:24:00;;;;;;;2.65;0.50;;;;;;;;;;20913128;28;20134;-66
2023/05/13 19:34:02;;;;;;;0.98;0.43;;;;;;;;;;20913051;28;20102;-66
2023/05/13 19:44:03;;;;;;;2.50;0.60;;;;;;;;;;20912699;28;20114;-66
2023/05/13 19:54:05;;;;;;;2.03;0.57;;;;;;;;;;20913092;28;20390;-66
2023/05/13 20:04:06;;;;;;;5.57;0.85;;;;;;;;;;20911705;28;20048;-68
2023/05/13 20:14:07;;;;;;;4.38;1.60;;;;;;;;;;20912350;28;20045;-67
2023/05/13 20:24:08;;;;;;;2.80;1.30;;;;;;;;;;20911111;28;20122;-66
2023/05/13 20:34:10;;;;;;;2.30;0.98;;;;;;;;;;20922306;28;20103;-66
2023/05/13 20:44:14;;;;;;;2.38;1.23;;;;;;;;;;20926431;28;20444;-66
2023/05/13 20:54:15;;;;;;;2.08;0.95;;;;;;;;;;20924225;28;20045;-66
2023/05/13 21:04:16;;;;;;;2.10;0.70;;;;;;;;;;20923474;28;20041;-66
2023/05/13 21:14:17;;;;;;;3.78;0.60;;;;;;;;;;20922324;28;20045;-66
2023/05/13 21:24:19;;;;;;;4.03;0.80;;;;;;;;;;20920899;28;20053;-66
2023/05/13 21:34:20;;;;;;;2.70;0.60;;;;;;;;;;20919762;28;20102;-66
2023/05/13 21:44:23;;;;;;;1.23;0.38;;;;;;;;;;20919131;28;20074;-66
2023/05/13 21:54:24;;;;;;;1.70;0.95;;;;;;;;;;20919938;28;20107;-66
2023/05/13 22:04:25;;;;;;;0.98;0.40;;;;;;;;;;20920099;28;20536;-66
2023/05/13 22:14:26;;;;;;;2.22;0.47;;;;;;;;;;20917775;28;20049;-66
2023/05/13 22:24:28;;;;;;;2.15;0.50;;;;;;;;;;20917501;28;20087;-65
2023/05/13 22:34:29;;;;;;;1.88;0.40;;;;;;;;;;20917282;28;20444;-65
2023/05/13 22:44:30;;;;;;;4.20;0.50;;;;;;;;;;20917009;28;20084;-66
2023/05/13 22:54:31;;;;;;;1.42;0.40;;;;;;;;;;20916053;28;20128;-66
2023/05/13 23:04:32;;;;;;;2.03;0.68;;;;;;;;;;20914646;28;20045;-66
2023/05/13 23:14:33;;;;;;;2.90;0.55;;;;;;;;;;20915132;28;20091;-66
2023/05/13 23:24:34;;;;;;;1.13;0.40;;;;;;;;;;20914070;28;20045;-65
2023/05/13 23:34:35;;;;;;;0.65;0.40;;;;;;;;;;20914382;28;20438;-67
2023/05/13 23:44:37;;;;;;;2.47;0.63;;;;;;;;;;20914179;28;20048;-67
2023/05/13 23:54:38;;;;;;;3.38;0.40;;;;;;;;;;20911882;28;20533;-66
